Great Neck, New York
Current Conditions -  °F | °C
As of 8:51 AM on Saturday 22 Nov 2014 (Local Time) from KLGA Reporting Station
Few Clouds Few Clouds  
Wind Chill: 22°   Ceiling: Unl
Heat Index: 31°   Visibility: 10mi
Dew Point: 10°   Wind: 12mph
Humidity: 42%   Direction: 230°SW
Pressure: 30.48"   Gusts: NA
Location:  40.8°N, 73.73°W
Report Text: KLGA 221351Z 23010KT 10SM FEW250 M01/M12 A3048 RMK AO2 SLP322 T10061122
Loading
Personal Weather Stations






























Interactive Weather Map New forecast layout! Learn more

10-Day Weather Forecast

Advertisements
Track Severe Weather on mobile